createdAt,value
2022-08-17T00:00:52.256Z,9.278306
2022-08-17T00:01:52.018Z,9.278335
2022-08-17T00:02:50.859Z,9.278464
2022-08-17T00:03:50.677Z,9.278335
2022-08-17T00:04:50.833Z,9.278346
2022-08-17T00:05:50.675Z,9.278318
2022-08-17T00:06:50.757Z,9.278228
2022-08-17T00:07:50.781Z,9.278373
2022-08-17T00:08:50.573Z,9.278268
2022-08-17T00:09:50.554Z,9.278187
2022-08-17T00:10:50.553Z,9.278325
2022-08-17T00:12:41.141Z,9.278423
2022-08-17T00:12:51.543Z,9.278411
2022-08-17T00:13:50.558Z,9.278237
2022-08-17T00:14:51.466Z,9.278339
2022-08-17T00:15:50.547Z,9.278415
2022-08-17T00:16:57.212Z,9.278316
2022-08-17T00:17:51.380Z,9.278343
2022-08-17T00:19:02.047Z,9.278368
2022-08-17T00:19:51.346Z,9.278285
2022-08-17T00:20:50.387Z,9.278296
2022-08-17T00:22:31.782Z,9.278270
2022-08-17T00:22:51.563Z,9.278430
2022-08-17T00:23:50.330Z,9.278399
2022-08-17T00:24:50.395Z,9.278375
2022-08-17T00:25:50.404Z,9.278372
2022-08-17T00:26:50.455Z,9.278337
2022-08-17T00:27:50.254Z,9.278335
2022-08-17T00:28:50.257Z,9.278282
2022-08-17T00:29:50.185Z,9.278309
2022-08-17T00:30:53.085Z,9.278385
2022-08-17T00:31:50.282Z,9.278338
2022-08-17T00:33:22.893Z,9.278246
2022-08-17T00:33:51.243Z,9.278340
2022-08-17T00:34:50.225Z,9.278309
2022-08-17T00:35:50.146Z,9.278322
2022-08-17T00:36:50.098Z,9.278336
2022-08-17T00:37:50.143Z,9.278301
2022-08-17T00:38:50.070Z,9.278365
2022-08-17T00:39:50.061Z,9.278329
2022-08-17T00:40:50.062Z,9.278303
2022-08-17T00:41:50.167Z,9.278318
2022-08-17T00:42:50.114Z,9.278280
2022-08-17T00:43:49.997Z,9.278264
2022-08-17T00:44:50.016Z,9.278268
2022-08-17T00:45:49.901Z,9.278322
2022-08-17T00:46:50.000Z,9.278288
2022-08-17T00:47:50.005Z,9.278276
2022-08-17T00:48:49.917Z,9.278261
2022-08-17T00:49:49.918Z,9.278327
2022-08-17T00:50:49.925Z,9.278347
2022-08-17T00:51:50.895Z,9.278358
2022-08-17T00:52:49.850Z,9.278265
2022-08-17T00:53:49.817Z,9.278340
2022-08-17T00:54:49.860Z,9.278333
2022-08-17T00:55:49.784Z,9.278301
2022-08-17T00:56:49.765Z,9.278273
2022-08-17T00:57:54.628Z,9.278297
2022-08-17T00:58:51.847Z,9.278340
2022-08-17T00:59:56.040Z,9.278302
2022-08-17T01:00:50.784Z,9.278419
2022-08-17T01:01:49.800Z,9.278377
2022-08-17T01:02:49.764Z,9.278346
2022-08-17T01:03:49.731Z,9.278315
2022-08-17T01:04:49.653Z,9.278268
2022-08-17T01:05:49.619Z,9.278359
2022-08-17T01:06:49.641Z,9.278341
2022-08-17T01:07:49.663Z,9.278334
2022-08-17T01:08:49.589Z,9.278275
2022-08-17T01:09:50.562Z,9.278338
2022-08-17T01:10:58.587Z,9.278284
2022-08-17T01:11:50.592Z,9.278299
2022-08-17T01:12:49.673Z,9.278263
2022-08-17T01:13:49.448Z,9.278334
2022-08-17T01:14:49.542Z,9.278301
2022-08-17T01:15:49.604Z,9.278307
2022-08-17T01:16:49.513Z,9.278357
2022-08-17T01:17:49.561Z,9.278358
2022-08-17T01:18:49.377Z,9.278359
2022-08-17T01:19:49.426Z,9.278399
2022-08-17T01:20:49.490Z,9.278369
2022-08-17T01:21:49.418Z,9.278303
2022-08-17T01:22:49.450Z,9.278286
2022-08-17T01:23:49.435Z,9.278284
2022-08-17T01:24:49.360Z,9.278271
2022-08-17T01:25:49.249Z,9.278234
2022-08-17T01:26:49.317Z,9.278294
2022-08-17T01:27:49.280Z,9.278232
2022-08-17T01:28:54.223Z,9.278219
2022-08-17T01:29:50.171Z,9.278277
2022-08-17T01:30:57.072Z,9.278222
2022-08-17T01:31:50.322Z,9.278255
2022-08-17T01:32:49.435Z,9.278222
2022-08-17T01:33:49.152Z,9.278244
2022-08-17T01:34:50.324Z,9.278264
2022-08-17T01:35:49.134Z,9.278252
2022-08-17T01:36:49.169Z,9.278327
2022-08-17T01:37:49.109Z,9.278345
2022-08-17T01:38:49.025Z,9.278376
2022-08-17T01:39:49.116Z,9.278308
2022-08-17T01:40:49.058Z,9.278365
2022-08-17T01:41:50.183Z,9.278373
2022-08-17T01:42:49.131Z,9.278251
2022-08-17T01:43:49.117Z,9.278332
2022-08-17T01:44:48.963Z,9.278288
2022-08-17T01:45:48.947Z,9.278337
2022-08-17T01:46:50.059Z,9.278371
2022-08-17T01:47:48.939Z,9.278397
2022-08-17T01:48:48.863Z,9.278298
2022-08-17T01:49:48.871Z,9.278290
2022-08-17T01:50:48.912Z,9.278304
2022-08-17T01:51:49.010Z,9.278245
2022-08-17T01:52:49.117Z,9.278311
2022-08-17T01:53:48.833Z,9.278350
2022-08-17T01:54:49.018Z,9.278312
2022-08-17T01:55:48.855Z,9.278233
2022-08-17T01:56:48.799Z,9.278247
2022-08-17T01:57:48.769Z,9.278321
2022-08-17T01:58:48.699Z,9.278316
2022-08-17T01:59:48.673Z,9.278249
2022-08-17T02:01:00.975Z,9.278308
2022-08-17T02:01:50.024Z,9.278312
2022-08-17T02:02:48.810Z,9.278306
2022-08-17T02:03:53.447Z,9.278322
2022-08-17T02:04:49.716Z,9.278365
2022-08-17T02:05:48.715Z,9.278277
2022-08-17T02:06:54.138Z,9.278293
2022-08-17T02:08:00.325Z,9.278276
2022-08-17T02:09:02.754Z,9.278364
2022-08-17T02:09:52.630Z,9.278338
2022-08-17T02:10:48.577Z,9.278378
2022-08-17T02:11:48.791Z,9.278347
2022-08-17T02:12:48.590Z,9.278300
2022-08-17T02:13:48.525Z,9.278355
2022-08-17T02:14:49.498Z,9.278373
2022-08-17T02:15:48.577Z,9.278297
2022-08-17T02:16:48.500Z,9.278296
2022-08-17T02:17:48.434Z,9.278312
2022-08-17T02:18:49.477Z,9.278382
2022-08-17T02:19:48.467Z,9.278327
2022-08-17T02:20:48.453Z,9.278271
2022-08-17T02:21:49.169Z,9.278457
2022-08-17T02:22:48.597Z,9.278428
2022-08-17T02:23:48.372Z,9.278383
2022-08-17T02:24:58.210Z,9.278401
2022-08-17T02:25:49.305Z,9.278296
2022-08-17T02:26:48.324Z,9.278300
2022-08-17T02:27:48.321Z,9.278325
2022-08-17T02:28:48.251Z,9.278108
2022-08-17T02:29:48.161Z,9.278238
2022-08-17T02:31:01.843Z,9.278398
2022-08-17T02:31:49.212Z,9.278469
2022-08-17T02:32:48.213Z,9.278413
2022-08-17T02:34:00.574Z,9.278440
2022-08-17T02:34:49.089Z,9.278423
2022-08-17T02:35:48.064Z,9.278406
2022-08-17T02:36:48.155Z,9.278358
2022-08-17T02:37:48.979Z,9.278346
2022-08-17T02:38:49.249Z,9.278409
2022-08-17T02:39:48.036Z,9.278402
2022-08-17T02:40:48.056Z,9.278391
2022-08-17T02:41:48.145Z,9.278365
2022-08-17T02:42:47.997Z,9.278415
2022-08-17T02:43:47.994Z,9.278223
2022-08-17T02:44:47.959Z,9.278246
2022-08-17T02:45:47.955Z,9.278169
2022-08-17T02:46:48.036Z,9.278323
2022-08-17T02:47:47.897Z,9.278339
2022-08-17T02:48:47.843Z,9.278372
2022-08-17T02:49:54.134Z,9.278277
2022-08-17T02:50:49.879Z,9.278287
2022-08-17T02:51:47.871Z,9.278395
2022-08-17T02:52:53.241Z,9.278392
2022-08-17T02:53:48.821Z,9.278385
2022-08-17T02:54:47.852Z,9.278332
2022-08-17T02:55:47.836Z,9.278350
2022-08-17T02:56:47.840Z,9.278343
2022-08-17T02:57:47.775Z,9.278335
2022-08-17T02:58:47.699Z,9.278337
2022-08-17T02:59:49.121Z,9.278172
2022-08-17T03:00:48.751Z,9.278213
2022-08-17T03:01:47.956Z,9.278311
2022-08-17T03:02:47.639Z,9.278401
2022-08-17T03:03:47.654Z,9.278318
2022-08-17T03:04:47.678Z,9.278338
2022-08-17T03:05:47.743Z,9.278261
2022-08-17T03:06:47.606Z,9.278214
2022-08-17T03:07:47.581Z,9.278339
2022-08-17T03:08:47.629Z,9.278360
2022-08-17T03:09:47.584Z,9.278326
2022-08-17T03:10:47.585Z,9.278346
2022-08-17T03:11:47.637Z,9.278354
2022-08-17T03:12:48.526Z,9.278328
2022-08-17T03:13:47.440Z,9.278328
2022-08-17T03:14:47.400Z,9.278365
2022-08-17T03:15:47.425Z,9.278313
2022-08-17T03:16:47.410Z,9.278302
2022-08-17T03:17:47.409Z,9.278270
2022-08-17T03:18:47.397Z,9.278255
2022-08-17T03:19:47.373Z,9.278327
2022-08-17T03:20:47.362Z,9.278326
2022-08-17T03:21:47.419Z,9.278291
2022-08-17T03:22:53.226Z,9.278296
2022-08-17T03:23:48.326Z,9.278390
2022-08-17T03:24:48.230Z,9.278343
2022-08-17T03:25:47.221Z,9.278216
2022-08-17T03:26:48.462Z,9.278365
2022-08-17T03:27:48.266Z,9.278290
2022-08-17T03:28:47.226Z,9.278376
2022-08-17T03:29:47.234Z,9.278395
2022-08-17T03:30:47.216Z,9.278399
2022-08-17T03:31:47.167Z,9.278388
2022-08-17T03:32:47.231Z,9.278366
2022-08-17T03:33:47.174Z,9.278397
2022-08-17T03:34:47.126Z,9.278416
2022-08-17T03:35:47.165Z,9.278213
2022-08-17T03:36:47.092Z,9.278220
2022-08-17T03:37:47.108Z,9.278329
2022-08-17T03:38:48.043Z,9.278333
2022-08-17T03:39:47.136Z,9.278338
2022-08-17T03:40:57.975Z,9.278446
2022-08-17T03:41:48.090Z,9.278395
2022-08-17T03:42:47.074Z,9.278322
2022-08-17T03:43:47.025Z,9.278318
2022-08-17T03:44:46.951Z,9.278423
2022-08-17T03:45:46.998Z,9.278503
2022-08-17T03:46:46.919Z,9.278339
2022-08-17T03:47:47.024Z,9.278259
2022-08-17T03:48:46.893Z,9.278341
2022-08-17T03:49:46.868Z,9.278360
2022-08-17T03:50:46.842Z,9.278290
2022-08-17T03:51:46.841Z,9.278356
2022-08-17T03:52:51.722Z,9.278309
2022-08-17T03:53:47.739Z,9.278309
2022-08-17T03:54:46.848Z,9.278358
2022-08-17T03:55:46.761Z,9.278331
2022-08-17T03:56:46.761Z,9.278362
2022-08-17T03:57:46.831Z,9.278379
2022-08-17T03:58:46.790Z,9.278368
2022-08-17T03:59:46.718Z,9.278395
2022-08-17T04:00:46.699Z,9.278277
2022-08-17T04:01:46.781Z,9.278274
2022-08-17T04:02:46.742Z,9.278276
2022-08-17T04:03:46.664Z,9.278208
2022-08-17T04:04:46.622Z,9.278323
2022-08-17T04:05:46.620Z,9.278396
2022-08-17T04:06:46.585Z,9.278356
2022-08-17T04:07:46.664Z,9.278356
2022-08-17T04:08:46.560Z,9.278370
2022-08-17T04:09:46.545Z,9.278311
2022-08-17T04:10:46.566Z,9.278288
2022-08-17T04:11:46.478Z,9.278291
2022-08-17T04:12:46.637Z,9.278351
2022-08-17T04:13:46.430Z,9.278415
2022-08-17T04:14:51.856Z,9.278420
2022-08-17T04:15:48.455Z,9.278316
2022-08-17T04:16:46.420Z,9.278337
2022-08-17T04:17:46.426Z,9.278263
2022-08-17T04:18:46.420Z,9.278214
2022-08-17T04:19:46.360Z,9.278203
2022-08-17T04:20:47.384Z,9.278263
2022-08-17T04:21:46.343Z,9.278352
2022-08-17T04:22:47.393Z,9.278403
2022-08-17T04:23:46.295Z,9.278349
2022-08-17T04:24:46.294Z,9.278279
2022-08-17T04:25:46.313Z,9.278284
2022-08-17T04:26:52.666Z,9.278346
2022-08-17T04:27:47.260Z,9.278394
2022-08-17T04:28:46.168Z,9.278356
2022-08-17T04:29:54.791Z,9.278230
2022-08-17T04:30:47.249Z,9.278230
2022-08-17T04:31:46.212Z,9.277997
2022-08-17T04:33:04.385Z,9.278292
2022-08-17T04:33:47.143Z,9.278288
2022-08-17T04:34:46.180Z,9.278294
2022-08-17T04:35:46.172Z,9.278347
2022-08-17T04:36:50.119Z,9.278314
2022-08-17T04:37:46.130Z,9.278295
2022-08-17T04:38:46.056Z,9.278345
2022-08-17T04:39:46.151Z,9.278321
2022-08-17T04:40:46.049Z,9.278337
2022-08-17T04:41:46.006Z,9.278420
2022-08-17T04:42:45.983Z,9.278339
2022-08-17T04:43:45.910Z,9.278304
2022-08-17T04:44:45.980Z,9.278207
2022-08-17T04:45:55.119Z,9.278306
2022-08-17T04:46:46.956Z,9.278329
2022-08-17T04:47:45.918Z,9.278281
2022-08-17T04:48:45.910Z,9.278170
2022-08-17T04:49:45.902Z,9.278248
2022-08-17T04:50:45.906Z,9.278305
2022-08-17T04:51:56.147Z,9.278172
2022-08-17T04:52:46.790Z,9.278276
2022-08-17T04:53:45.846Z,9.278278
2022-08-17T04:54:46.771Z,9.278312
2022-08-17T04:55:45.767Z,9.278267
2022-08-17T04:56:45.742Z,9.278398
2022-08-17T04:57:45.776Z,9.278289
2022-08-17T04:58:45.657Z,9.278297
2022-08-17T04:59:45.751Z,9.278268
2022-08-17T05:00:45.682Z,9.278283
2022-08-17T05:01:45.740Z,9.278249
2022-08-17T05:02:50.297Z,9.278241
2022-08-17T05:03:46.670Z,9.278308
2022-08-17T05:04:45.604Z,9.278228
2022-08-17T05:05:45.599Z,9.278276
2022-08-17T05:06:45.563Z,9.278358
2022-08-17T05:07:45.608Z,9.278319
2022-08-17T05:08:45.688Z,9.278346
2022-08-17T05:09:45.546Z,9.278296
2022-08-17T05:10:45.790Z,9.278226
2022-08-17T05:11:45.494Z,9.278280
2022-08-17T05:12:45.545Z,9.278292
2022-08-17T05:13:45.521Z,9.278297
2022-08-17T05:14:45.436Z,9.278313
2022-08-17T05:15:47.585Z,9.278321
2022-08-17T05:16:45.419Z,9.278251
2022-08-17T05:17:45.432Z,9.278187
2022-08-17T05:18:45.391Z,9.278224
2022-08-17T05:19:48.813Z,9.278209
2022-08-17T05:20:47.360Z,9.278192
2022-08-17T05:21:45.381Z,9.278219
2022-08-17T05:22:45.346Z,9.278295
2022-08-17T05:23:47.193Z,9.278297
2022-08-17T05:24:55.525Z,9.278246
2022-08-17T05:25:47.569Z,9.278281
2022-08-17T05:26:45.261Z,9.278236
2022-08-17T05:27:45.369Z,9.278237
2022-08-17T05:28:46.036Z,9.278294
2022-08-17T05:29:45.264Z,9.278305
2022-08-17T05:30:45.188Z,9.278273
2022-08-17T05:31:45.123Z,9.278290
2022-08-17T05:32:45.131Z,9.278250
2022-08-17T05:33:46.345Z,9.278232
2022-08-17T05:34:45.056Z,9.278304
2022-08-17T05:35:45.247Z,9.278192
2022-08-17T05:36:45.055Z,9.278285
2022-08-17T05:37:45.158Z,9.278236
2022-08-17T05:38:45.077Z,9.278258
2022-08-17T05:39:45.046Z,9.278333
2022-08-17T05:40:44.975Z,9.278300
2022-08-17T05:41:45.029Z,9.278330
2022-08-17T05:42:45.047Z,9.278296
2022-08-17T05:43:44.978Z,9.278271
2022-08-17T05:44:45.067Z,9.278385
2022-08-17T05:45:55.848Z,9.278337
2022-08-17T05:46:45.947Z,9.278353
2022-08-17T05:47:44.895Z,9.278273
2022-08-17T05:48:44.931Z,9.278264
2022-08-17T05:49:44.952Z,9.278293
2022-08-17T05:50:44.871Z,9.278288
2022-08-17T05:51:44.854Z,9.278286
2022-08-17T05:52:44.919Z,9.278283
2022-08-17T05:53:44.828Z,9.278317
2022-08-17T05:54:44.784Z,9.278262
2022-08-17T05:55:44.734Z,9.278313
2022-08-17T05:56:44.739Z,9.278265
2022-08-17T05:57:48.163Z,9.278291
2022-08-17T05:58:45.768Z,9.278361
2022-08-17T05:59:44.674Z,9.278332
2022-08-17T06:00:44.776Z,9.278308
2022-08-17T06:01:44.686Z,9.278274
2022-08-17T06:02:47.909Z,9.278317
2022-08-17T06:03:45.659Z,9.278300
2022-08-17T06:04:44.637Z,9.278260
2022-08-17T06:05:44.658Z,9.278292
2022-08-17T06:06:44.617Z,9.278373
2022-08-17T06:07:44.655Z,9.278361
2022-08-17T06:08:44.636Z,9.278323
2022-08-17T06:09:44.577Z,9.278293
2022-08-17T06:10:44.510Z,9.278349
2022-08-17T06:11:44.599Z,9.278283
2022-08-17T06:12:44.600Z,9.278306
2022-08-17T06:13:44.547Z,9.278222
2022-08-17T06:14:44.516Z,9.278275
2022-08-17T06:15:44.491Z,9.278292
2022-08-17T06:16:44.481Z,9.278254
2022-08-17T06:17:44.637Z,9.278217
2022-08-17T06:18:44.432Z,9.278266
2022-08-17T06:19:44.496Z,9.278271
2022-08-17T06:20:44.398Z,9.278284
2022-08-17T06:21:44.396Z,9.278248
2022-08-17T06:22:46.218Z,9.278289
2022-08-17T06:23:44.336Z,9.278271
2022-08-17T06:24:44.355Z,9.278280
2022-08-17T06:25:44.391Z,9.278311
2022-08-17T06:26:44.273Z,9.278313
2022-08-17T06:27:44.353Z,9.278231
2022-08-17T06:28:44.282Z,9.278263
2022-08-17T06:29:44.296Z,9.278296
2022-08-17T06:30:58.554Z,9.278324
2022-08-17T06:31:45.230Z,9.278254
2022-08-17T06:32:46.036Z,9.278279
2022-08-17T06:33:44.887Z,9.278358
2022-08-17T06:34:44.250Z,9.278255
2022-08-17T06:35:44.233Z,9.278214
2022-08-17T06:36:44.108Z,9.278307
2022-08-17T06:37:44.127Z,9.278306
2022-08-17T06:38:44.071Z,9.278250
2022-08-17T06:39:44.125Z,9.278309
2022-08-17T06:40:44.118Z,9.278387
2022-08-17T06:41:44.196Z,9.278440
2022-08-17T06:43:02.597Z,9.278448
2022-08-17T06:43:47.933Z,9.278376
2022-08-17T06:44:51.304Z,9.278356
2022-08-17T06:45:45.154Z,9.278348
2022-08-17T06:46:44.019Z,9.278298
2022-08-17T06:47:44.084Z,9.278381
2022-08-17T06:48:44.020Z,9.278388
2022-08-17T06:49:43.968Z,9.278243
2022-08-17T06:50:44.001Z,9.278301
2022-08-17T06:51:43.931Z,9.278327
2022-08-17T06:52:47.271Z,9.278305
2022-08-17T06:53:43.962Z,9.278299
2022-08-17T06:54:43.847Z,9.278249
2022-08-17T06:55:43.977Z,9.278261
2022-08-17T06:56:53.089Z,9.278298
2022-08-17T06:57:44.966Z,9.278360
2022-08-17T06:58:43.830Z,9.278308
2022-08-17T06:59:56.195Z,9.278308
2022-08-17T07:00:44.947Z,9.278149
2022-08-17T07:01:44.474Z,9.278234
2022-08-17T07:02:52.332Z,9.278244
2022-08-17T07:03:45.581Z,9.278214
2022-08-17T07:04:45.434Z,9.278080
2022-08-17T07:05:44.788Z,9.278113
2022-08-17T07:06:44.625Z,9.278317
2022-08-17T07:07:44.889Z,9.278377
2022-08-17T07:08:43.889Z,9.278401
2022-08-17T07:09:43.763Z,9.278376
2022-08-17T07:10:45.318Z,9.278330
2022-08-17T07:11:44.816Z,9.278419
2022-08-17T07:12:43.674Z,9.278373
2022-08-17T07:13:44.153Z,9.278431
2022-08-17T07:14:45.371Z,9.278455
2022-08-17T07:15:43.591Z,9.278477
2022-08-17T07:16:43.600Z,9.278500
2022-08-17T07:17:47.699Z,9.278481
2022-08-17T07:18:43.549Z,9.278331
2022-08-17T07:19:43.695Z,9.278376
2022-08-17T07:20:43.474Z,9.278416
2022-08-17T07:21:43.489Z,9.278416
2022-08-17T07:22:57.203Z,9.278431
2022-08-17T07:23:44.426Z,9.278323
2022-08-17T07:24:43.399Z,9.278398
2022-08-17T07:25:43.542Z,9.278404
2022-08-17T07:26:43.392Z,9.278396
2022-08-17T07:27:44.180Z,9.278346
2022-08-17T07:28:43.511Z,9.278335
2022-08-17T07:29:43.436Z,9.278440
2022-08-17T07:30:45.900Z,9.278405
2022-08-17T07:31:44.293Z,9.278447
2022-08-17T07:32:43.401Z,9.278364
2022-08-17T07:33:43.306Z,9.278283
2022-08-17T07:34:43.308Z,9.278408
2022-08-17T07:35:43.913Z,9.278449
2022-08-17T07:36:43.412Z,9.278445
2022-08-17T07:37:43.464Z,9.278524
2022-08-17T07:38:43.304Z,9.278530
2022-08-17T07:40:14.802Z,9.278542
2022-08-17T07:40:44.308Z,9.278437
2022-08-17T07:41:53.047Z,9.278406
2022-08-17T07:42:46.562Z,9.278536
2022-08-17T07:43:44.144Z,9.278575
2022-08-17T07:44:43.130Z,9.278546
2022-08-17T07:45:43.206Z,9.278519
2022-08-17T07:46:43.136Z,9.278575
2022-08-17T07:47:43.175Z,9.278552
2022-08-17T07:48:43.174Z,9.278602
2022-08-17T07:49:43.051Z,9.278543
2022-08-17T07:50:43.077Z,9.278513
2022-08-17T07:51:44.124Z,9.278503
2022-08-17T07:52:50.642Z,9.278563
2022-08-17T07:53:44.033Z,9.278586
2022-08-17T07:54:43.046Z,9.278385
2022-08-17T07:55:43.067Z,9.278427
2022-08-17T07:56:43.062Z,9.278449
2022-08-17T07:57:43.080Z,9.278513
2022-08-17T07:58:42.969Z,9.278504
2022-08-17T07:59:43.410Z,9.278226
2022-08-17T08:00:43.030Z,9.278511
2022-08-17T08:01:42.902Z,9.278465
2022-08-17T08:02:42.896Z,9.278448
2022-08-17T08:03:42.906Z,9.278435
2022-08-17T08:04:59.537Z,9.278406
2022-08-17T08:05:50.133Z,9.278383
2022-08-17T08:06:44.048Z,9.278477
2022-08-17T08:07:42.914Z,9.278429
2022-08-17T08:08:42.863Z,9.278458
2022-08-17T08:09:42.881Z,9.278446
2022-08-17T08:10:45.267Z,9.278501
2022-08-17T08:11:44.475Z,9.278384
2022-08-17T08:12:43.782Z,9.278365
2022-08-17T08:13:42.899Z,9.278354
2022-08-17T08:14:42.770Z,9.278318
2022-08-17T08:15:45.177Z,9.278370
2022-08-17T08:16:43.722Z,9.278402
2022-08-17T08:17:42.752Z,9.278412
2022-08-17T08:18:54.639Z,9.278310
2022-08-17T08:19:43.705Z,9.278388
2022-08-17T08:20:53.386Z,9.278291
2022-08-17T08:21:43.681Z,9.278332
2022-08-17T08:22:42.740Z,9.278392
2022-08-17T08:23:43.610Z,9.278413
2022-08-17T08:24:42.639Z,9.278540
2022-08-17T08:25:42.614Z,9.278511
2022-08-17T08:26:42.612Z,9.278545
2022-08-17T08:27:42.617Z,9.278550
2022-08-17T08:28:42.677Z,9.278538
2022-08-17T08:29:42.622Z,9.278672
2022-08-17T08:30:42.606Z,9.278507
2022-08-17T08:31:42.639Z,9.278461
2022-08-17T08:32:43.666Z,9.278425
2022-08-17T08:33:42.550Z,9.278479
2022-08-17T08:34:58.998Z,9.278499
2022-08-17T08:35:43.482Z,9.278438
2022-08-17T08:37:14.712Z,9.278536
2022-08-17T08:37:43.721Z,9.278479
2022-08-17T08:38:43.473Z,9.278565
2022-08-17T08:39:42.472Z,9.278509
2022-08-17T08:40:42.358Z,9.278637
2022-08-17T08:41:42.354Z,9.278499
2022-08-17T08:42:42.549Z,9.278408
2022-08-17T08:43:42.376Z,9.278462
2022-08-17T08:45:00.759Z,9.278489
2022-08-17T08:45:43.410Z,9.278525
2022-08-17T08:46:42.309Z,9.278768
2022-08-17T08:47:42.393Z,9.278593
2022-08-17T08:48:55.977Z,9.278536
2022-08-17T08:50:03.503Z,9.278345
2022-08-17T08:50:44.306Z,9.278316
2022-08-17T08:51:42.315Z,9.278509
2022-08-17T08:52:42.226Z,9.278516
2022-08-17T08:53:42.182Z,9.278367
2022-08-17T08:54:42.234Z,9.278337
2022-08-17T08:55:42.159Z,9.278374
2022-08-17T08:56:53.986Z,9.278367
2022-08-17T08:57:44.264Z,9.278355
2022-08-17T08:58:42.678Z,9.278456
2022-08-17T08:59:44.473Z,9.278266
2022-08-17T09:00:42.121Z,9.278283
2022-08-17T09:01:42.219Z,9.278510
2022-08-17T09:02:42.274Z,9.278602
2022-08-17T09:03:52.363Z,9.278469
2022-08-17T09:05:10.365Z,9.278474
2022-08-17T09:05:44.198Z,9.278222
2022-08-17T09:06:42.074Z,9.278393
2022-08-17T09:07:42.087Z,9.278382
2022-08-17T09:08:41.989Z,9.278351
2022-08-17T09:09:42.135Z,9.278327
2022-08-17T09:10:41.954Z,9.278352
2022-08-17T09:12:01.126Z,9.278303
2022-08-17T09:12:43.039Z,9.278316
2022-08-17T09:13:41.924Z,9.278297
2022-08-17T09:14:46.743Z,9.278312
2022-08-17T09:15:42.950Z,9.278334
2022-08-17T09:16:41.942Z,9.278333
2022-08-17T09:17:42.008Z,9.278339
2022-08-17T09:19:02.330Z,9.278320
2022-08-17T09:19:42.895Z,9.278292
2022-08-17T09:20:44.289Z,9.278286
2022-08-17T09:21:48.720Z,9.278355
2022-08-17T09:22:42.904Z,9.278387
2022-08-17T09:23:41.844Z,9.278384
2022-08-17T09:24:41.786Z,9.278395
2022-08-17T09:25:41.921Z,9.278450
2022-08-17T09:26:41.805Z,9.278470
2022-08-17T09:27:41.768Z,9.278434
2022-08-17T09:28:41.925Z,9.278440
2022-08-17T09:29:41.924Z,9.278401
2022-08-17T09:30:41.747Z,9.278506
2022-08-17T09:31:48.770Z,9.278502
2022-08-17T09:32:42.720Z,9.278588
2022-08-17T09:33:41.909Z,9.278520
2022-08-17T09:34:43.434Z,9.278464
2022-08-17T09:35:41.742Z,9.278509
2022-08-17T09:36:41.669Z,9.278406
2022-08-17T09:37:41.656Z,9.278496
2022-08-17T09:38:41.725Z,9.278428
2022-08-17T09:39:41.880Z,9.278532
2022-08-17T09:40:41.645Z,9.278496
2022-08-17T09:41:49.136Z,9.278329
2022-08-17T09:42:42.581Z,9.278343
2022-08-17T09:43:41.558Z,9.278456
2022-08-17T09:44:41.510Z,9.278413
2022-08-17T09:45:41.536Z,9.278351
2022-08-17T09:46:41.524Z,9.278301
2022-08-17T09:47:41.568Z,9.278359
2022-08-17T09:48:41.529Z,9.278360
2022-08-17T09:49:41.492Z,9.278338
2022-08-17T09:51:04.094Z,9.278320
2022-08-17T09:51:42.596Z,9.278333
2022-08-17T09:52:41.505Z,9.278353
2022-08-17T09:53:41.414Z,9.278357
2022-08-17T09:54:41.391Z,9.278398
2022-08-17T09:55:41.434Z,9.278466
2022-08-17T09:56:46.231Z,9.278398
2022-08-17T09:57:43.460Z,9.278418
2022-08-17T09:58:41.323Z,9.278435
2022-08-17T09:59:41.381Z,9.278418
2022-08-17T10:00:41.411Z,9.278381
2022-08-17T10:01:41.375Z,9.278385
2022-08-17T10:02:41.278Z,9.278394
2022-08-17T10:03:41.267Z,9.278376
2022-08-17T10:04:41.250Z,9.278352
2022-08-17T10:05:41.243Z,9.278326
2022-08-17T10:06:41.297Z,9.278352
2022-08-17T10:07:41.255Z,9.278345
2022-08-17T10:08:41.239Z,9.278327
2022-08-17T10:09:41.222Z,9.278363
2022-08-17T10:10:41.842Z,9.278367
2022-08-17T10:11:45.628Z,9.278343
2022-08-17T10:12:46.468Z,9.278358
2022-08-17T10:13:43.129Z,9.278404
2022-08-17T10:14:43.693Z,9.278400
2022-08-17T10:15:42.668Z,9.278370
2022-08-17T10:16:42.096Z,9.278363
2022-08-17T10:17:41.090Z,9.278308
2022-08-17T10:18:41.073Z,9.278307
2022-08-17T10:19:43.922Z,9.278220
2022-08-17T10:20:41.091Z,9.278262
2022-08-17T10:21:41.064Z,9.278267
2022-08-17T10:22:40.914Z,9.278350
2022-08-17T10:23:41.035Z,9.278400
2022-08-17T10:24:40.922Z,9.278406
2022-08-17T10:25:54.496Z,9.278414
2022-08-17T10:26:55.994Z,9.278402
2022-08-17T10:27:42.916Z,9.278274
2022-08-17T10:28:40.945Z,9.278449
2022-08-17T10:29:48.505Z,9.278481
2022-08-17T10:30:41.854Z,9.278440
2022-08-17T10:31:40.894Z,9.278263
2022-08-17T10:32:40.821Z,9.278271
2022-08-17T10:33:40.820Z,9.278258
2022-08-17T10:34:41.131Z,9.278191
2022-08-17T10:35:40.762Z,9.278360
2022-08-17T10:36:40.747Z,9.278185
2022-08-17T10:37:40.669Z,9.278431
2022-08-17T10:38:40.674Z,9.278241
2022-08-17T10:39:51.960Z,9.278130
2022-08-17T10:40:41.746Z,9.278311
2022-08-17T10:41:40.789Z,9.278269
2022-08-17T10:42:40.703Z,9.278254
2022-08-17T10:43:40.709Z,9.278260
2022-08-17T10:44:41.395Z,9.278370
2022-08-17T10:45:41.634Z,9.278340
2022-08-17T10:46:40.622Z,9.278240
2022-08-17T10:47:54.907Z,9.278258
2022-08-17T10:48:42.672Z,9.278292
2022-08-17T10:49:40.482Z,9.278331
2022-08-17T10:50:40.631Z,9.278275
2022-08-17T10:51:40.614Z,9.278326
2022-08-17T10:52:40.501Z,9.278296
2022-08-17T10:53:40.512Z,9.278280
2022-08-17T10:54:40.520Z,9.278275
2022-08-17T10:55:40.516Z,9.278312
2022-08-17T10:56:40.529Z,9.278305
2022-08-17T10:57:40.506Z,9.278355
2022-08-17T10:58:40.492Z,9.278353
2022-08-17T10:59:40.344Z,9.278398
2022-08-17T11:00:40.581Z,9.278362
2022-08-17T11:01:40.361Z,9.278381
2022-08-17T11:02:40.407Z,9.278332
2022-08-17T11:03:40.375Z,9.278330
2022-08-17T11:04:40.323Z,9.278293
2022-08-17T11:05:43.777Z,9.278228
2022-08-17T11:06:41.295Z,9.278299
2022-08-17T11:07:40.289Z,9.278308
2022-08-17T11:08:40.653Z,9.278281
2022-08-17T11:09:40.241Z,9.278371
2022-08-17T11:10:40.177Z,9.278367
2022-08-17T11:11:40.286Z,9.278305
2022-08-17T11:12:40.145Z,9.278262
2022-08-17T11:13:40.287Z,9.278226
2022-08-17T11:14:40.165Z,9.278251
2022-08-17T11:15:40.148Z,9.278192
2022-08-17T11:16:40.157Z,9.278254
2022-08-17T11:17:40.121Z,9.278143
2022-08-17T11:18:40.102Z,9.278275
2022-08-17T11:19:40.086Z,9.278312
2022-08-17T11:20:40.021Z,9.278163
2022-08-17T11:21:40.085Z,9.278311
2022-08-17T11:22:40.050Z,9.278339
2022-08-17T11:23:40.005Z,9.278352
2022-08-17T11:24:39.963Z,9.278264
2022-08-17T11:25:39.965Z,9.278358
2022-08-17T11:26:40.039Z,9.278314
2022-08-17T11:27:39.976Z,9.278325
2022-08-17T11:28:40.031Z,9.278339
2022-08-17T11:29:39.948Z,9.278304
2022-08-17T11:30:39.945Z,9.278382
2022-08-17T11:31:40.059Z,9.278521
2022-08-17T11:32:48.818Z,9.278327
2022-08-17T11:33:40.909Z,9.278415
2022-08-17T11:34:39.927Z,9.278334
2022-08-17T11:35:39.877Z,9.278284
2022-08-17T11:36:39.832Z,9.278307
2022-08-17T11:37:39.950Z,9.278337
2022-08-17T11:38:39.839Z,9.278357
2022-08-17T11:39:39.872Z,9.278263
2022-08-17T11:40:39.787Z,9.278280
2022-08-17T11:41:39.767Z,9.278372
2022-08-17T11:42:39.862Z,9.278365
2022-08-17T11:43:42.841Z,9.278429
2022-08-17T11:44:40.779Z,9.278439